createdAt,value
2022-08-17T00:02:26.012Z,78.77
2022-08-17T00:04:54.436Z,79.23
2022-08-17T00:07:21.272Z,79.43
2022-08-17T00:09:47.815Z,78.86
2022-08-17T00:12:40.799Z,79.39
2022-08-17T00:15:01.111Z,79.78
2022-08-17T00:17:27.908Z,79.84
2022-08-17T00:19:54.401Z,80.11
2022-08-17T00:22:32.278Z,79.90
2022-08-17T00:25:05.302Z,80.40
2022-08-17T00:27:31.861Z,80.33
2022-08-17T00:29:58.385Z,80.23
2022-08-17T00:33:16.082Z,80.60
2022-08-17T00:35:15.214Z,80.67
2022-08-17T00:37:42.086Z,81.09
2022-08-17T00:40:12.520Z,80.70
2022-08-17T00:42:39.482Z,81.14
2022-08-17T00:45:09.411Z,80.96
2022-08-17T00:47:36.131Z,81.01
2022-08-17T00:50:06.482Z,81.39
2022-08-17T00:52:37.634Z,81.06
2022-08-17T00:55:06.151Z,81.87
2022-08-17T00:57:42.113Z,81.54
2022-08-17T01:00:21.277Z,82.44
2022-08-17T01:02:48.908Z,82.36
2022-08-17T01:05:19.580Z,82.05
2022-08-17T01:07:50.806Z,82.31
2022-08-17T01:10:57.358Z,82.88
2022-08-17T01:13:10.724Z,82.46
2022-08-17T01:15:41.368Z,83.61
2022-08-17T01:18:14.008Z,83.07
2022-08-17T01:20:49.324Z,82.50
2022-08-17T01:23:20.432Z,81.82
2022-08-17T01:25:54.104Z,82.61
2022-08-17T01:28:53.191Z,82.56
2022-08-17T01:31:09.062Z,82.27
2022-08-17T01:33:36.384Z,82.77
2022-08-17T01:36:04.160Z,82.76
2022-08-17T01:38:31.908Z,82.94
2022-08-17T01:41:06.906Z,82.93
2022-08-17T01:43:41.371Z,83.18
2022-08-17T01:46:07.992Z,82.19
2022-08-17T01:48:39.451Z,82.37
2022-08-17T01:51:07.536Z,82.25
2022-08-17T01:53:42.595Z,83.15
2022-08-17T01:56:12.229Z,83.27
2022-08-17T01:58:39.805Z,83.36
2022-08-17T02:01:08.230Z,84.87
2022-08-17T02:03:36.666Z,84.65
2022-08-17T02:06:05.576Z,84.83
2022-08-17T02:09:01.999Z,84.65
2022-08-17T02:11:29.245Z,84.84
2022-08-17T02:14:02.355Z,84.59
2022-08-17T02:16:37.652Z,85.19
2022-08-17T02:19:11.211Z,84.43
2022-08-17T02:21:39.247Z,85.18
2022-08-17T02:24:08.251Z,85.57
2022-08-17T02:26:34.813Z,85.04
2022-08-17T02:29:01.420Z,86.00
2022-08-17T02:31:27.879Z,85.94
2022-08-17T02:34:03.507Z,85.97
2022-08-17T02:36:31.077Z,85.57
2022-08-17T02:38:58.657Z,85.76
2022-08-17T02:41:25.272Z,85.67
2022-08-17T02:43:53.143Z,85.59
2022-08-17T02:46:19.701Z,85.15
2022-08-17T02:48:46.264Z,85.41
2022-08-17T02:51:12.735Z,85.66
2022-08-17T02:53:39.198Z,86.84
2022-08-17T02:56:05.849Z,85.82
2022-08-17T02:58:35.430Z,85.93
2022-08-17T03:01:04.704Z,86.29
2022-08-17T03:03:31.357Z,86.72
2022-08-17T03:05:57.901Z,86.27
2022-08-17T03:08:25.390Z,85.18
2022-08-17T03:10:51.912Z,84.41
2022-08-17T03:13:18.504Z,84.58
2022-08-17T03:15:46.326Z,85.82
2022-08-17T03:18:24.098Z,86.66
2022-08-17T03:20:51.665Z,87.22
2022-08-17T03:23:18.768Z,87.54
2022-08-17T03:25:50.552Z,87.60
2022-08-17T03:28:20.667Z,87.33
2022-08-17T03:30:47.227Z,88.18
2022-08-17T03:33:14.138Z,87.15
2022-08-17T03:35:41.040Z,86.84
2022-08-17T03:38:10.082Z,87.18
2022-08-17T03:40:58.020Z,87.19
2022-08-17T03:43:23.880Z,87.40
2022-08-17T03:46:11.072Z,87.75
2022-08-17T03:49:14.225Z,87.94
2022-08-17T03:51:59.213Z,87.70
2022-08-17T03:54:44.745Z,87.40
2022-08-17T03:57:12.499Z,87.42
2022-08-17T03:59:39.694Z,89.08
2022-08-17T04:02:24.125Z,89.94
2022-08-17T04:04:51.234Z,88.46
2022-08-17T04:07:20.772Z,88.68
2022-08-17T04:09:47.371Z,89.15
2022-08-17T04:12:18.581Z,87.89
2022-08-17T04:14:51.940Z,90.09
2022-08-17T04:17:21.368Z,89.16
2022-08-17T04:19:47.840Z,89.52
2022-08-17T04:22:33.203Z,87.99
2022-08-17T04:25:06.362Z,88.45
2022-08-17T04:27:32.848Z,89.36
2022-08-17T04:29:59.350Z,88.40
2022-08-17T04:33:04.351Z,88.61
2022-08-17T04:35:12.404Z,87.95
2022-08-17T04:37:38.994Z,86.93
2022-08-17T04:40:25.955Z,85.44
2022-08-17T04:43:09.413Z,85.63
2022-08-17T04:45:55.282Z,86.21
2022-08-17T04:48:35.744Z,86.33
2022-08-17T04:51:09.761Z,86.46
2022-08-17T04:53:37.443Z,85.32
2022-08-17T04:56:04.464Z,83.47
2022-08-17T04:58:30.934Z,83.88
2022-08-17T05:00:57.571Z,83.44
2022-08-17T05:03:24.229Z,83.09
2022-08-17T05:05:51.136Z,83.71
2022-08-17T05:08:20.212Z,82.72
2022-08-17T05:10:47.805Z,81.47
2022-08-17T05:13:20.455Z,81.72
2022-08-17T05:15:48.404Z,83.01
2022-08-17T05:18:16.601Z,82.54
2022-08-17T05:20:43.960Z,82.15
2022-08-17T05:23:13.988Z,81.01
2022-08-17T05:25:49.154Z,81.11
2022-08-17T05:28:19.706Z,80.70
2022-08-17T05:30:51.521Z,80.25
2022-08-17T05:33:24.279Z,79.26
2022-08-17T05:35:54.455Z,78.64
2022-08-17T05:38:23.703Z,80.74
2022-08-17T05:40:50.266Z,79.00
2022-08-17T05:43:22.791Z,74.80
2022-08-17T05:45:56.432Z,68.95
2022-08-17T05:48:39.208Z,63.12
2022-08-17T05:51:32.948Z,58.19
2022-08-17T05:54:20.409Z,54.17
2022-08-17T05:57:14.753Z,52.84
2022-08-17T05:59:44.308Z,50.33
2022-08-17T06:02:10.797Z,49.01
2022-08-17T06:04:59.757Z,47.08
2022-08-17T06:07:46.077Z,44.63
2022-08-17T06:10:50.814Z,44.70
2022-08-17T06:13:47.812Z,45.02
2022-08-17T06:16:32.880Z,44.83
2022-08-17T06:19:11.577Z,44.26
2022-08-17T06:21:41.195Z,41.56
2022-08-17T06:24:28.902Z,43.34
2022-08-17T06:26:59.988Z,43.84
2022-08-17T06:29:49.550Z,42.14
2022-08-17T06:32:17.201Z,41.74
2022-08-17T06:34:45.787Z,40.96
2022-08-17T06:37:40.703Z,41.26
2022-08-17T06:40:35.161Z,39.70
2022-08-17T06:43:14.169Z,40.96
2022-08-17T06:45:49.406Z,41.36
2022-08-17T06:48:25.385Z,40.86
2022-08-17T06:51:00.717Z,40.49
2022-08-17T06:53:35.457Z,39.72
2022-08-17T06:56:08.763Z,40.51
2022-08-17T06:58:37.431Z,40.29
2022-08-17T07:01:10.385Z,41.22
2022-08-17T07:03:54.782Z,40.48
2022-08-17T07:06:26.520Z,40.01
2022-08-17T07:08:55.851Z,39.34
2022-08-17T07:11:50.894Z,37.89
2022-08-17T07:14:31.867Z,37.09
2022-08-17T07:17:02.706Z,37.86
2022-08-17T07:19:32.816Z,38.10
2022-08-17T07:22:02.162Z,38.82
2022-08-17T07:24:49.234Z,38.51
2022-08-17T07:27:18.159Z,39.51
2022-08-17T07:30:19.409Z,40.10
2022-08-17T07:32:57.829Z,39.58
2022-08-17T07:35:31.241Z,38.77
2022-08-17T07:38:24.776Z,38.91
2022-08-17T07:41:01.903Z,38.74
2022-08-17T07:43:48.529Z,39.26
2022-08-17T07:46:50.489Z,39.40
2022-08-17T07:49:23.618Z,38.88
2022-08-17T07:51:50.474Z,38.99
2022-08-17T07:54:22.601Z,37.99
2022-08-17T07:56:56.448Z,37.95
2022-08-17T07:59:33.769Z,37.25
2022-08-17T08:02:05.877Z,36.93
2022-08-17T08:04:59.661Z,35.61
2022-08-17T08:07:31.868Z,36.10
2022-08-17T08:10:07.672Z,36.51
2022-08-17T08:12:38.539Z,35.80
2022-08-17T08:15:21.843Z,35.04
2022-08-17T08:17:48.634Z,34.63
2022-08-17T08:20:47.765Z,33.54
2022-08-17T08:23:29.587Z,33.58
2022-08-17T08:26:18.709Z,33.14
2022-08-17T08:29:00.437Z,34.25
2022-08-17T08:31:32.663Z,34.39
2022-08-17T08:34:44.588Z,33.25
2022-08-17T08:37:56.189Z,32.08
2022-08-17T08:40:36.251Z,33.11
2022-08-17T08:43:22.977Z,33.63
2022-08-17T08:46:05.574Z,32.34
2022-08-17T08:49:06.575Z,33.75
2022-08-17T08:51:50.711Z,33.00
2022-08-17T08:54:52.138Z,32.30
2022-08-17T08:57:27.809Z,32.25
2022-08-17T09:00:07.220Z,31.99
2022-08-17T09:03:07.371Z,32.53
2022-08-17T09:05:42.815Z,31.52
2022-08-17T09:08:22.050Z,31.22
2022-08-17T09:11:03.672Z,29.34
2022-08-17T09:13:39.564Z,29.86
2022-08-17T09:16:15.347Z,29.75
2022-08-17T09:19:01.263Z,30.04
2022-08-17T09:21:47.795Z,30.44
2022-08-17T09:24:43.864Z,30.96
2022-08-17T09:27:28.793Z,30.19
2022-08-17T09:30:00.455Z,30.44
2022-08-17T09:32:56.376Z,30.83
2022-08-17T09:35:33.788Z,29.63
2022-08-17T09:38:32.343Z,30.49
2022-08-17T09:41:03.832Z,30.76
2022-08-17T09:43:43.739Z,30.19
2022-08-17T09:46:25.011Z,29.87
2022-08-17T09:49:03.460Z,29.65
2022-08-17T09:51:40.115Z,29.46
2022-08-17T09:54:38.619Z,29.81
2022-08-17T09:57:31.767Z,29.48
2022-08-17T10:00:16.294Z,30.63
2022-08-17T10:03:08.687Z,29.22
2022-08-17T10:05:57.217Z,29.78
2022-08-17T10:08:32.800Z,30.37
2022-08-17T10:11:18.411Z,29.77
2022-08-17T10:14:36.822Z,30.14
2022-08-17T10:17:24.344Z,30.23
2022-08-17T10:20:12.541Z,28.96
2022-08-17T10:22:57.599Z,29.08
2022-08-17T10:25:54.520Z,28.45
2022-08-17T10:38:56.866Z,30.05
2022-08-17T10:41:32.568Z,29.81
2022-08-17T10:44:39.013Z,28.64
2022-08-17T10:47:15.935Z,29.18
2022-08-17T10:49:47.782Z,29.34
2022-08-17T10:52:20.388Z,29.84
2022-08-17T10:55:08.691Z,30.38
2022-08-17T10:57:42.234Z,30.26
2022-08-17T11:00:57.898Z,30.57
2022-08-17T11:03:26.065Z,31.27
2022-08-17T11:05:59.465Z,30.27
2022-08-17T11:08:45.389Z,30.06
2022-08-17T11:11:35.920Z,29.40
2022-08-17T11:14:07.529Z,30.04
2022-08-17T11:16:50.788Z,29.59
2022-08-17T11:19:34.329Z,30.02
2022-08-17T11:22:34.341Z,30.86
2022-08-17T11:25:20.189Z,31.42
2022-08-17T11:27:54.221Z,30.31
2022-08-17T11:30:40.999Z,30.32
2022-08-17T11:33:28.950Z,30.19
2022-08-17T11:36:12.217Z,30.78
2022-08-17T11:38:58.046Z,31.24
2022-08-17T11:41:43.065Z,30.25
2022-08-17T11:44:37.714Z,30.28
2022-08-17T11:48:23.723Z,31.15
2022-08-17T11:51:17.222Z,29.87
2022-08-17T11:53:43.649Z,30.43
2022-08-17T11:56:30.048Z,30.21
2022-08-17T11:58:56.532Z,29.30
2022-08-17T12:01:22.948Z,30.34
2022-08-17T12:03:58.957Z,29.50
2022-08-17T12:06:46.679Z,29.88
2022-08-17T12:09:19.974Z,30.73
2022-08-17T12:12:11.955Z,30.49
2022-08-17T12:15:08.899Z,30.32
2022-08-17T12:17:39.228Z,29.60
2022-08-17T12:20:22.058Z,29.98
2022-08-17T12:23:09.164Z,29.43
2022-08-17T12:26:01.850Z,29.71
2022-08-17T12:28:35.748Z,30.21
2022-08-17T12:31:24.821Z,30.23
2022-08-17T12:33:51.845Z,31.65
2022-08-17T12:36:24.715Z,29.73
2022-08-17T12:39:00.098Z,30.37
2022-08-17T12:41:47.491Z,30.91
2022-08-17T12:44:19.644Z,30.90
2022-08-17T12:46:59.298Z,30.98
2022-08-17T12:49:28.307Z,30.44
2022-08-17T12:52:02.134Z,30.02
2022-08-17T12:54:38.367Z,29.82
2022-08-17T12:57:12.570Z,29.78
2022-08-17T12:59:46.223Z,30.84
2022-08-17T13:02:52.755Z,30.34
2022-08-17T13:05:34.957Z,29.70
2022-08-17T13:08:05.989Z,30.42
2022-08-17T13:10:34.169Z,29.81
2022-08-17T13:13:05.315Z,29.59
2022-08-17T13:15:36.977Z,28.98
2022-08-17T13:18:10.371Z,29.60
2022-08-17T13:20:37.204Z,29.46
2022-08-17T13:23:11.949Z,29.60
2022-08-17T13:25:39.203Z,30.67
2022-08-17T13:28:05.732Z,31.31
2022-08-17T13:30:33.447Z,30.52
2022-08-17T13:33:04.662Z,30.02
2022-08-17T13:35:39.357Z,29.68
2022-08-17T13:38:11.019Z,29.01
2022-08-17T13:40:50.043Z,28.72
2022-08-17T13:43:48.388Z,29.80
2022-08-17T13:46:26.203Z,30.03
2022-08-17T13:49:06.348Z,29.83
2022-08-17T13:51:44.367Z,29.15
2022-08-17T13:54:27.776Z,29.91
2022-08-17T13:56:58.775Z,29.96
2022-08-17T13:59:36.405Z,29.95
2022-08-17T14:02:19.410Z,29.31
2022-08-17T14:04:47.515Z,29.10
2022-08-17T14:07:15.360Z,29.86
2022-08-17T14:09:50.183Z,29.84
2022-08-17T14:12:21.640Z,29.49
2022-08-17T14:14:49.560Z,30.49
2022-08-17T14:17:16.110Z,30.94
2022-08-17T14:19:42.808Z,30.44
2022-08-17T14:22:30.582Z,30.86
2022-08-17T14:24:59.013Z,30.55
2022-08-17T14:27:28.076Z,29.89
2022-08-17T14:29:56.332Z,29.11
2022-08-17T14:32:32.398Z,30.12
2022-08-17T14:34:59.851Z,29.83
2022-08-17T14:37:28.447Z,30.06
2022-08-17T14:39:59.815Z,30.42
2022-08-17T14:42:30.890Z,29.86
2022-08-17T14:45:05.967Z,31.18
2022-08-17T14:47:37.340Z,30.65
2022-08-17T14:50:06.521Z,30.86
2022-08-17T14:52:35.953Z,30.38
2022-08-17T14:55:02.513Z,30.88
2022-08-17T14:57:33.658Z,31.09
2022-08-17T15:00:01.586Z,30.87
2022-08-17T15:02:29.696Z,30.07
2022-08-17T15:05:02.224Z,30.68
2022-08-17T15:07:30.533Z,31.11
2022-08-17T15:09:58.738Z,31.21
2022-08-17T15:12:31.996Z,30.94
2022-08-17T15:15:00.661Z,31.16
2022-08-17T15:17:27.186Z,31.17
2022-08-17T15:20:17.413Z,31.03
2022-08-17T15:22:45.983Z,31.03
2022-08-17T15:25:13.368Z,30.30
2022-08-17T15:27:40.242Z,30.76
2022-08-17T15:30:08.574Z,31.31
2022-08-17T15:32:38.564Z,30.78
2022-08-17T15:35:08.840Z,31.27
2022-08-17T15:37:36.436Z,30.98
2022-08-17T15:40:05.336Z,31.60
2022-08-17T15:42:32.412Z,32.01
2022-08-17T15:44:59.883Z,31.39
2022-08-17T15:47:26.472Z,31.01
2022-08-17T15:49:57.923Z,32.39
2022-08-17T15:52:29.759Z,32.33
2022-08-17T15:55:01.088Z,31.42
2022-08-17T15:57:27.875Z,32.93
2022-08-17T15:59:58.972Z,31.70
2022-08-17T16:03:46.051Z,31.83
2022-08-17T16:05:22.043Z,33.16
2022-08-17T16:07:52.069Z,31.71
2022-08-17T16:10:19.514Z,32.58
2022-08-17T16:12:48.006Z,31.97
2022-08-17T16:15:15.203Z,31.63
2022-08-17T16:17:42.097Z,32.58
2022-08-17T16:20:19.583Z,32.49
2022-08-17T16:22:48.877Z,32.76
2022-08-17T16:25:22.222Z,33.31
2022-08-17T16:27:53.503Z,33.26
2022-08-17T16:30:23.667Z,32.71
2022-08-17T16:32:51.786Z,33.58
2022-08-17T16:35:21.978Z,34.46
2022-08-17T16:37:48.785Z,35.39
2022-08-17T16:40:16.826Z,35.05
2022-08-17T16:42:45.625Z,35.06
2022-08-17T16:45:22.308Z,34.69
2022-08-17T16:47:50.243Z,34.94
2022-08-17T16:50:20.431Z,35.01
2022-08-17T16:52:48.438Z,34.98
2022-08-17T16:55:18.181Z,35.98
2022-08-17T16:57:47.210Z,35.39
2022-08-17T17:00:19.338Z,36.29
2022-08-17T17:02:49.356Z,36.19
2022-08-17T17:05:45.185Z,37.28
2022-08-17T17:08:37.501Z,36.89
2022-08-17T17:11:14.592Z,35.94
2022-08-17T17:13:48.538Z,35.57
2022-08-17T17:16:33.219Z,35.49
2022-08-17T17:19:17.966Z,36.65
2022-08-17T17:22:15.330Z,36.94
2022-08-17T17:24:41.716Z,36.42
2022-08-17T17:27:21.158Z,37.62
2022-08-17T17:30:14.640Z,38.17
2022-08-17T17:32:54.522Z,38.92
2022-08-17T17:35:31.700Z,39.93
2022-08-17T17:38:03.706Z,40.01
2022-08-17T17:40:41.802Z,39.42
2022-08-17T17:43:37.066Z,38.66
2022-08-17T17:46:21.880Z,38.62
2022-08-17T17:48:53.869Z,38.35
2022-08-17T17:52:08.874Z,37.65
2022-08-17T17:54:43.373Z,38.44
2022-08-17T17:57:21.302Z,37.78
2022-08-17T18:00:03.499Z,37.87
2022-08-17T18:02:51.888Z,38.81
2022-08-17T18:05:54.452Z,39.02
2022-08-17T18:08:34.324Z,40.69
2022-08-17T18:11:07.401Z,44.89
2022-08-17T18:13:42.564Z,44.64
2022-08-17T18:16:13.150Z,43.82
2022-08-17T18:18:47.157Z,43.19
2022-08-17T18:21:19.293Z,43.34
2022-08-17T18:23:48.588Z,44.18
2022-08-17T18:27:08.293Z,45.10
2022-08-17T18:29:42.697Z,45.08
2022-08-17T18:32:23.834Z,46.04
2022-08-17T18:34:55.079Z,47.49
2022-08-17T18:41:23.680Z,49.80
2022-08-17T18:44:19.213Z,50.33
2022-08-17T18:46:45.694Z,50.89
2022-08-17T18:49:28.908Z,51.94
2022-08-17T18:52:21.495Z,52.96
2022-08-17T18:55:12.598Z,54.23
2022-08-17T18:57:44.550Z,54.79
2022-08-17T19:00:35.891Z,54.80
2022-08-17T19:03:19.848Z,55.51
2022-08-17T19:13:51.445Z,54.88
2022-08-17T19:16:28.540Z,56.15
2022-08-17T19:19:09.550Z,56.65
2022-08-17T19:21:40.705Z,56.22
2022-08-17T19:24:20.941Z,58.04
2022-08-17T19:26:57.511Z,58.16
2022-08-17T19:29:37.193Z,58.63
2022-08-17T19:32:06.412Z,59.38
2022-08-17T19:34:35.868Z,60.21
2022-08-17T19:37:17.462Z,59.21
2022-08-17T19:39:52.671Z,57.89
2022-08-17T19:42:25.133Z,58.01
2022-08-17T19:45:03.728Z,59.72
2022-08-17T19:47:53.842Z,59.34
2022-08-17T19:50:28.309Z,58.82
2022-08-17T19:53:13.579Z,59.02
2022-08-17T19:55:58.731Z,58.60
2022-08-17T19:58:40.072Z,57.20
2022-08-17T20:01:13.929Z,57.21
2022-08-17T20:04:13.123Z,58.21
2022-08-17T20:06:44.345Z,58.50
2022-08-17T20:09:22.301Z,58.39
2022-08-17T20:11:55.542Z,58.57
2022-08-17T20:14:30.959Z,58.56
2022-08-17T20:17:02.471Z,55.74
2022-08-17T20:19:37.320Z,56.20
2022-08-17T20:22:10.521Z,56.29
2022-08-17T20:24:52.535Z,56.97
2022-08-17T20:27:31.297Z,57.82
2022-08-17T20:29:57.856Z,58.15
2022-08-17T20:32:33.011Z,59.08
2022-08-17T20:35:18.420Z,59.93
2022-08-17T20:37:53.918Z,59.49
2022-08-17T20:40:25.935Z,59.43
2022-08-17T20:42:52.705Z,59.53
2022-08-17T20:45:21.917Z,59.35
2022-08-17T20:48:18.643Z,57.48
2022-08-17T20:50:43.852Z,59.20
2022-08-17T20:53:13.477Z,60.22
2022-08-17T20:55:52.025Z,60.29
2022-08-17T20:58:30.833Z,56.46
2022-08-17T21:00:57.709Z,54.54
2022-08-17T21:03:24.347Z,54.14
2022-08-17T21:06:11.074Z,53.71
2022-08-17T21:08:53.226Z,55.27
2022-08-17T21:11:58.194Z,56.11
2022-08-17T21:14:57.422Z,57.49
2022-08-17T21:17:36.392Z,59.10
2022-08-17T21:20:25.404Z,59.71
2022-08-17T21:23:01.251Z,60.46
2022-08-17T21:25:49.461Z,60.45
2022-08-17T21:28:33.792Z,59.61
2022-08-17T21:31:08.546Z,58.91
2022-08-17T21:33:39.545Z,56.07
2022-08-17T21:36:12.029Z,56.36
2022-08-17T21:38:53.426Z,58.10
2022-08-17T21:41:31.931Z,57.89
2022-08-17T21:44:12.927Z,57.88
2022-08-17T21:46:42.982Z,58.51
2022-08-17T21:49:16.803Z,59.29
2022-08-17T21:51:53.773Z,57.32
2022-08-17T21:54:36.869Z,55.80
2022-08-17T21:57:08.026Z,54.03
2022-08-17T21:59:39.881Z,55.59
2022-08-17T22:02:17.761Z,52.85
2022-08-17T22:04:59.272Z,52.96
2022-08-17T22:07:45.104Z,50.32
2022-08-17T22:10:36.988Z,47.86
2022-08-17T22:13:18.443Z,46.37
2022-08-17T22:15:50.259Z,46.46
2022-08-17T22:18:25.114Z,46.65
2022-08-17T22:20:54.802Z,47.40
2022-08-17T22:23:58.694Z,48.49
2022-08-17T22:26:47.093Z,49.85
2022-08-17T22:29:46.873Z,49.78
2022-08-17T22:32:44.733Z,49.45
2022-08-17T22:35:35.326Z,50.61
2022-08-17T22:38:19.817Z,50.71
2022-08-17T22:41:18.893Z,51.51
2022-08-17T22:43:45.456Z,53.60
2022-08-17T22:46:12.574Z,54.17
2022-08-17T22:48:48.518Z,53.95
2022-08-17T22:51:20.537Z,52.78
2022-08-17T22:54:13.025Z,51.89
2022-08-17T22:57:13.075Z,50.45
2022-08-17T22:59:47.639Z,50.05
2022-08-17T23:02:17.255Z,49.31
2022-08-17T23:04:47.844Z,49.52
2022-08-17T23:07:15.272Z,49.67
2022-08-17T23:09:41.854Z,50.11
2022-08-17T23:12:17.788Z,50.79
2022-08-17T23:14:46.855Z,51.61
2022-08-17T23:17:13.637Z,51.25
2022-08-17T23:19:40.249Z,50.05
2022-08-17T23:22:09.509Z,49.73
2022-08-17T23:24:43.349Z,50.05
2022-08-17T23:27:10.800Z,50.45
2022-08-17T23:29:42.058Z,50.45
2022-08-17T23:32:14.802Z,50.63
2022-08-17T23:34:43.521Z,50.24
2022-08-17T23:37:11.950Z,50.43
2022-08-17T23:39:39.451Z,51.08
2022-08-17T23:42:10.916Z,51.19
2022-08-17T23:44:39.453Z,51.44
2022-08-17T23:47:07.711Z,52.75
2022-08-17T23:49:36.067Z,53.29
2022-08-17T23:52:07.079Z,52.77
2022-08-17T23:54:43.488Z,51.13
2022-08-17T23:57:12.896Z,52.22
2022-08-17T23:59:40.085Z,52.91
